createdAt,value
2016-03-22T00:00:18.329Z,95.17
2016-03-22T00:01:18.332Z,95.65
2016-03-22T00:02:18.303Z,95.36
2016-03-22T00:03:18.292Z,95.84
2016-03-22T00:04:18.278Z,95.84
2016-03-22T00:05:18.249Z,95.84
2016-03-22T00:06:18.253Z,95.46
2016-03-22T00:07:18.239Z,95.65
2016-03-22T00:08:18.210Z,95.36
2016-03-22T00:09:18.197Z,95.65
2016-03-22T00:10:18.185Z,95.55
2016-03-22T00:11:18.172Z,95.55
2016-03-22T00:12:18.144Z,95.93
2016-03-22T00:13:18.146Z,95.65
2016-03-22T00:14:18.116Z,95.36
2016-03-22T00:15:18.105Z,95.55
2016-03-22T00:16:18.091Z,96.12
2016-03-22T00:17:18.078Z,96.12
2016-03-22T00:18:18.050Z,95.46
2016-03-22T00:19:18.037Z,96.12
2016-03-22T00:20:18.040Z,96.03
2016-03-22T00:21:18.011Z,96.22
2016-03-22T00:22:17.998Z,96.12
2016-03-22T00:23:17.985Z,96.12
2016-03-22T00:24:17.988Z,96.03
2016-03-22T00:25:17.943Z,96.22
2016-03-22T00:26:17.931Z,96.41
2016-03-22T00:27:17.918Z,96.41
2016-03-22T00:28:17.920Z,96.5
2016-03-22T00:29:17.892Z,96.78
2016-03-22T00:30:17.878Z,96.41
2016-03-22T00:31:17.850Z,96.59
2016-03-22T00:32:17.852Z,96.41
2016-03-22T00:33:17.824Z,96.78
2016-03-22T00:34:17.811Z,96.55
2016-03-22T00:35:17.797Z,96.26
2016-03-22T00:36:17.785Z,96.45
2016-03-22T00:37:17.771Z,96.69
2016-03-22T00:38:17.760Z,96.26
2016-03-22T00:39:17.746Z,96.59
2016-03-22T00:40:17.718Z,96.97
2016-03-22T00:41:17.688Z,96.5
2016-03-22T00:42:17.691Z,96.59
2016-03-22T00:43:17.663Z,96.36
2016-03-22T00:44:17.650Z,96.64
2016-03-22T00:45:17.637Z,96.55
2016-03-22T00:46:17.624Z,96.55
2016-03-22T00:47:17.612Z,96.36
2016-03-22T00:48:17.582Z,96.64
2016-03-22T00:49:17.570Z,96.69
2016-03-22T00:50:17.573Z,96.45
2016-03-22T00:51:17.544Z,96.45
2016-03-22T00:52:17.531Z,96.55
2016-03-22T00:53:17.533Z,96.78
2016-03-22T00:54:17.490Z,96.59
2016-03-22T00:55:17.476Z,96.64
2016-03-22T00:56:17.464Z,96.92
2016-03-22T00:57:17.450Z,96.55
2016-03-22T00:58:17.438Z,96.45
2016-03-22T00:59:17.408Z,96.55
2016-03-22T01:00:17.412Z,96.64
2016-03-22T01:01:17.399Z,96.64
2016-03-22T01:02:17.369Z,96.83
2016-03-22T01:03:17.358Z,97.02
2016-03-22T01:04:17.344Z,97.02
2016-03-22T01:05:17.347Z,97.02
2016-03-22T01:06:17.303Z,97.02
2016-03-22T01:07:17.290Z,97.02
2016-03-22T01:08:17.293Z,96.92
2016-03-22T01:09:17.405Z,97.31
2016-03-22T01:10:17.251Z,96.83
2016-03-22T01:11:17.223Z,96.92
2016-03-22T01:12:17.210Z,96.92
2016-03-22T01:13:17.196Z,97.21
2016-03-22T01:14:17.185Z,97.21
2016-03-22T01:15:17.155Z,96.83
2016-03-22T01:16:17.143Z,96.83
2016-03-22T01:17:17.129Z,97.31
2016-03-22T01:18:17.117Z,97.02
2016-03-22T01:19:17.103Z,97.21
2016-03-22T01:20:17.481Z,97.31
2016-03-22T01:21:17.062Z,97.59
2016-03-22T01:22:17.048Z,97.5
2016-03-22T01:23:17.037Z,97.12
2016-03-22T01:24:17.023Z,97.5
2016-03-22T01:25:17.010Z,97.4
2016-03-22T01:26:16.842Z,97.5
2016-03-22T01:27:16.969Z,97.78
2016-03-22T01:28:16.956Z,98.07
2016-03-22T01:29:16.942Z,97.97
2016-03-22T01:30:16.930Z,97.69
2016-03-22T01:31:16.902Z,97.78
2016-03-22T01:32:16.889Z,97.78
2016-03-22T01:33:16.891Z,97.78
2016-03-22T01:34:16.863Z,97.88
2016-03-22T01:35:16.850Z,97.45
2016-03-22T01:36:16.836Z,97.88
2016-03-22T01:37:16.824Z,97.78
2016-03-22T01:38:16.795Z,97.78
2016-03-22T01:39:16.830Z,97.78
2016-03-22T01:40:16.769Z,97.78
2016-03-22T01:41:16.757Z,97.78
2016-03-22T01:42:16.743Z,97.88
2016-03-22T01:43:16.715Z,97.88
2016-03-22T01:44:16.702Z,98.07
2016-03-22T01:45:16.689Z,97.73
2016-03-22T01:46:16.660Z,97.59
2016-03-22T01:47:16.647Z,97.69
2016-03-22T01:48:16.635Z,97.69
2016-03-22T01:49:16.621Z,97.35
2016-03-22T01:50:16.609Z,97.4
2016-03-22T01:51:16.581Z,97.59
2016-03-22T01:52:16.567Z,97.59
2016-03-22T01:53:16.570Z,97.59
2016-03-22T01:54:16.495Z,97.69
2016-03-22T01:55:16.528Z,97.5
2016-03-22T01:56:16.531Z,97.69
2016-03-22T01:57:16.499Z,97.78
2016-03-22T01:58:16.457Z,97.78
2016-03-22T01:59:16.431Z,97.69
2016-03-22T02:00:16.404Z,97.78
2016-03-22T02:01:16.378Z,97.69
2016-03-22T02:02:16.338Z,97.88
2016-03-22T02:03:16.320Z,97.78
2016-03-22T02:04:16.318Z,97.12
2016-03-22T02:05:16.285Z,97.4
2016-03-22T02:06:16.266Z,97.31
2016-03-22T02:07:16.249Z,97.12
2016-03-22T02:08:16.251Z,97.21
2016-03-22T02:09:16.220Z,97.4
2016-03-22T02:10:16.205Z,97.5
2016-03-22T02:11:16.176Z,97.4
2016-03-22T02:12:16.162Z,97.5
2016-03-22T02:13:16.147Z,97.4
2016-03-22T02:14:16.118Z,97.4
2016-03-22T02:15:16.105Z,97.59
2016-03-22T02:16:16.090Z,97.4
2016-03-22T02:17:15.937Z,97.5
2016-03-22T02:18:16.050Z,97.12
2016-03-22T02:19:16.052Z,97.12
2016-03-22T02:20:16.055Z,97.5
2016-03-22T02:21:16.011Z,97.59
2016-03-22T02:22:16.013Z,97.5
2016-03-22T02:23:16.047Z,97.5
2016-03-22T02:24:15.972Z,97.78
2016-03-22T02:25:15.958Z,97.59
2016-03-22T02:26:15.930Z,97.69
2016-03-22T02:27:15.917Z,97.78
2016-03-22T02:28:15.904Z,98.07
2016-03-22T02:29:15.891Z,97.97
2016-03-22T02:30:15.868Z,98.16
2016-03-22T02:31:15.854Z,98.25
2016-03-22T02:32:15.841Z,97.97
2016-03-22T02:33:15.844Z,98.07
2016-03-22T02:34:15.815Z,97.69
2016-03-22T02:35:15.788Z,98.73
2016-03-22T02:36:15.774Z,98.44
2016-03-22T02:37:15.761Z,98.54
2016-03-22T02:38:15.748Z,98.25
2016-03-22T02:39:15.735Z,98.73
2016-03-22T02:40:15.706Z,98.63
2016-03-22T02:41:15.695Z,98.92
2016-03-22T02:42:15.681Z,98.92
2016-03-22T02:43:15.667Z,98.82
2016-03-22T02:44:15.671Z,98.92
2016-03-22T02:45:15.642Z,99.3
2016-03-22T02:46:15.613Z,99.11
2016-03-22T02:47:15.600Z,99.11
2016-03-22T02:48:15.588Z,99.49
2016-03-22T02:49:15.575Z,99.01
2016-03-22T02:50:15.562Z,99.2
2016-03-22T02:51:15.533Z,99.77
2016-03-22T02:52:15.520Z,99.49
2016-03-22T02:53:15.508Z,99.77
2016-03-22T02:54:15.494Z,99.58
2016-03-22T02:55:15.482Z,99.3
2016-03-22T02:56:15.453Z,99.87
2016-03-22T02:57:15.441Z,99.68
2016-03-22T02:58:15.427Z,99.91
2016-03-22T02:59:15.430Z,99.99
2016-03-22T03:00:15.385Z,99.99
2016-03-22T03:01:15.373Z,99.99
2016-03-22T03:02:15.376Z,99.99
2016-03-22T03:03:15.346Z,99.99
2016-03-22T03:04:15.334Z,99.99
2016-03-22T03:05:15.321Z,99.99
2016-03-22T03:06:15.293Z,99.99
2016-03-22T03:07:15.279Z,99.99
2016-03-22T03:08:15.267Z,99.99
2016-03-22T03:09:15.254Z,99.99
2016-03-22T03:10:15.240Z,99.99
2016-03-22T03:11:15.212Z,99.99
2016-03-22T03:12:15.199Z,99.99
2016-03-22T03:13:15.186Z,99.99
2016-03-22T03:14:15.173Z,99.99
2016-03-22T03:15:15.161Z,99.99
2016-03-22T03:16:15.147Z,99.99
2016-03-22T03:17:15.135Z,99.99
2016-03-22T03:18:15.106Z,99.99
2016-03-22T03:19:15.092Z,99.99
2016-03-22T03:20:15.081Z,99.99
2016-03-22T03:21:15.052Z,99.99
2016-03-22T03:22:14.882Z,99.99
2016-03-22T03:23:15.025Z,99.99
2016-03-22T03:24:15.028Z,99.99
2016-03-22T03:25:14.999Z,99.99
2016-03-22T03:26:14.987Z,99.99
2016-03-22T03:27:14.958Z,99.99
2016-03-22T03:28:14.945Z,99.99
2016-03-22T03:29:14.933Z,99.99
2016-03-22T03:30:14.904Z,99.99
2016-03-22T03:31:14.891Z,99.99
2016-03-22T03:32:14.893Z,99.99
2016-03-22T03:33:14.865Z,99.99
2016-03-22T03:34:14.837Z,99.99
2016-03-22T03:35:14.824Z,99.99
2016-03-22T03:36:14.810Z,99.99
2016-03-22T03:37:14.813Z,99.99
2016-03-22T03:38:14.785Z,99.99
2016-03-22T03:39:14.757Z,99.99
2016-03-22T03:40:14.743Z,99.99
2016-03-22T03:41:14.730Z,99.99
2016-03-22T03:42:14.718Z,99.99
2016-03-22T03:43:14.704Z,99.99
2016-03-22T03:44:14.676Z,99.99
2016-03-22T03:45:14.678Z,99.99
2016-03-22T03:46:14.650Z,99.99
2016-03-22T03:47:14.637Z,99.99
2016-03-22T03:48:14.625Z,99.99
2016-03-22T03:49:14.595Z,99.99
2016-03-22T03:50:14.582Z,99.99
2016-03-22T03:51:14.570Z,99.99
2016-03-22T03:52:14.541Z,99.99
2016-03-22T03:53:14.544Z,99.99
2016-03-22T03:54:14.516Z,99.99
2016-03-22T03:55:14.502Z,99.99
2016-03-22T03:56:14.474Z,99.99
2016-03-22T03:57:14.492Z,99.99
2016-03-22T03:58:14.479Z,99.99
2016-03-22T03:59:14.435Z,99.99
2016-03-22T04:00:14.422Z,99.99
2016-03-22T04:01:14.393Z,99.99
2016-03-22T04:02:14.380Z,99.99
2016-03-22T04:03:14.368Z,99.99
2016-03-22T04:04:14.354Z,99.99
2016-03-22T04:05:14.326Z,99.99
2016-03-22T04:06:14.313Z,99.99
2016-03-22T04:07:14.301Z,99.99
2016-03-22T04:08:14.271Z,99.99
2016-03-22T04:09:14.274Z,99.99
2016-03-22T04:10:14.245Z,99.99
2016-03-22T04:11:14.232Z,99.99
2016-03-22T04:12:14.220Z,99.99
2016-03-22T04:13:14.192Z,99.99
2016-03-22T04:14:14.178Z,99.99
2016-03-22T04:15:14.165Z,99.99
2016-03-22T04:16:14.153Z,99.99
2016-03-22T04:17:14.123Z,99.99
2016-03-22T04:18:14.126Z,99.99
2016-03-22T04:19:14.098Z,99.99
2016-03-22T04:20:14.085Z,99.99
2016-03-22T04:21:14.073Z,99.99
2016-03-22T04:22:14.044Z,99.99
2016-03-22T04:23:14.030Z,99.99
2016-03-22T04:24:14.018Z,99.99
2016-03-22T04:25:13.989Z,99.99
2016-03-22T04:26:13.977Z,99.99
2016-03-22T04:27:13.963Z,99.99
2016-03-22T04:28:13.950Z,99.99
2016-03-22T04:29:13.922Z,99.99
2016-03-22T04:30:13.909Z,99.99
2016-03-22T04:31:13.896Z,99.99
2016-03-22T04:32:13.882Z,99.99
2016-03-22T04:33:13.855Z,99.99
2016-03-22T04:34:13.841Z,99.99
2016-03-22T04:35:13.844Z,99.99
2016-03-22T04:36:13.815Z,99.99
2016-03-22T04:37:13.802Z,99.99
2016-03-22T04:38:13.774Z,99.99
2016-03-22T04:39:13.762Z,99.99
2016-03-22T04:40:13.765Z,99.99
2016-03-22T04:41:13.751Z,99.99
2016-03-22T04:42:13.706Z,99.99
2016-03-22T04:43:13.694Z,99.99
2016-03-22T04:44:13.681Z,99.99
2016-03-22T04:45:13.667Z,99.99
2016-03-22T04:46:13.640Z,99.99
2016-03-22T04:47:13.626Z,99.99
2016-03-22T04:48:13.614Z,99.99
2016-03-22T04:49:13.601Z,99.99
2016-03-22T04:50:13.572Z,99.99
2016-03-22T04:51:13.559Z,99.99
2016-03-22T04:52:13.547Z,99.99
2016-03-22T04:53:13.533Z,99.99
2016-03-22T04:54:13.520Z,99.99
2016-03-22T04:55:13.522Z,99.99
2016-03-22T04:56:13.495Z,99.99
2016-03-22T04:57:13.466Z,99.99
2016-03-22T04:58:13.438Z,99.99
2016-03-22T04:59:13.440Z,99.99
2016-03-22T05:00:13.411Z,99.99
2016-03-22T05:01:13.399Z,99.99
2016-03-22T05:02:13.385Z,99.99
2016-03-22T05:03:13.372Z,99.99
2016-03-22T05:04:13.343Z,99.99
2016-03-22T05:05:13.347Z,99.99
2016-03-22T05:06:13.318Z,99.99
2016-03-22T05:07:13.321Z,99.99
2016-03-22T05:08:13.277Z,99.99
2016-03-22T05:09:13.295Z,99.99
2016-03-22T05:10:13.266Z,99.99
2016-03-22T05:11:13.238Z,99.99
2016-03-22T05:12:13.225Z,99.99
2016-03-22T05:13:13.196Z,99.99
2016-03-22T05:14:13.184Z,99.99
2016-03-22T05:15:13.170Z,99.99
2016-03-22T05:16:13.158Z,99.99
2016-03-22T05:17:13.129Z,99.99
2016-03-22T05:18:13.117Z,99.99
2016-03-22T05:19:13.103Z,99.99
2016-03-22T05:20:13.075Z,99.99
2016-03-22T05:21:13.062Z,99.99
2016-03-22T05:22:13.064Z,99.99
2016-03-22T05:23:13.036Z,99.99
2016-03-22T05:24:13.022Z,99.99
2016-03-22T05:25:12.885Z,99.99
2016-03-22T05:26:12.997Z,99.99
2016-03-22T05:27:12.969Z,99.99
2016-03-22T05:28:12.972Z,99.99
2016-03-22T05:29:12.942Z,99.99
2016-03-22T05:30:12.914Z,99.99
2016-03-22T05:31:12.901Z,99.99
2016-03-22T05:32:12.888Z,99.99
2016-03-22T05:33:12.875Z,99.99
2016-03-22T05:34:12.862Z,99.99
2016-03-22T05:35:12.850Z,99.99
2016-03-22T05:36:12.821Z,99.99
2016-03-22T05:37:12.846Z,99.99
2016-03-22T05:38:12.790Z,99.99
2016-03-22T05:39:12.776Z,99.99
2016-03-22T05:40:14.158Z,99.99
2016-03-22T05:41:12.728Z,99.99
2016-03-22T05:42:12.716Z,99.99
2016-03-22T05:43:12.703Z,99.99
2016-03-22T05:44:12.674Z,99.99
2016-03-22T05:45:12.661Z,99.99
2016-03-22T05:46:12.649Z,99.99
2016-03-22T05:47:12.635Z,99.99
2016-03-22T05:48:12.622Z,99.99
2016-03-22T05:49:12.594Z,99.99
2016-03-22T05:50:12.580Z,99.99
2016-03-22T05:51:12.413Z,99.99
2016-03-22T05:52:12.555Z,99.99
2016-03-22T05:53:12.543Z,99.99
2016-03-22T05:54:12.513Z,99.99
2016-03-22T05:55:12.532Z,99.99
2016-03-22T05:56:12.488Z,99.99
2016-03-22T05:57:12.474Z,99.99
2016-03-22T05:58:12.463Z,99.99
2016-03-22T05:59:12.449Z,99.99
2016-03-22T06:00:12.421Z,99.99
2016-03-22T06:01:12.407Z,99.99
2016-03-22T06:02:12.395Z,99.99
2016-03-22T06:03:12.379Z,99.99
2016-03-22T06:04:12.351Z,99.99
2016-03-22T06:05:12.337Z,99.99
2016-03-22T06:06:12.340Z,99.99
2016-03-22T06:07:12.312Z,99.99
2016-03-22T06:08:12.298Z,99.99
2016-03-22T06:09:12.286Z,99.99
2016-03-22T06:10:12.273Z,99.99
2016-03-22T06:11:12.245Z,99.99
2016-03-22T06:12:12.231Z,99.99
2016-03-22T06:13:12.202Z,99.99
2016-03-22T06:14:12.190Z,99.99
2016-03-22T06:15:12.192Z,99.99
2016-03-22T06:16:12.164Z,99.99
2016-03-22T06:17:12.150Z,99.99
2016-03-22T06:18:12.153Z,99.99
2016-03-22T06:19:12.124Z,99.99
2016-03-22T06:20:12.112Z,99.99
2016-03-22T06:21:12.084Z,99.99
2016-03-22T06:22:12.071Z,99.99
2016-03-22T06:23:12.058Z,99.99
2016-03-22T06:24:12.044Z,99.99
2016-03-22T06:25:12.032Z,99.99
2016-03-22T06:26:12.019Z,99.99
2016-03-22T06:27:11.990Z,99.99
2016-03-22T06:28:11.977Z,99.99
2016-03-22T06:29:11.964Z,99.99
2016-03-22T06:30:11.952Z,99.99
2016-03-22T06:31:11.923Z,99.99
2016-03-22T06:32:11.910Z,99.99
2016-03-22T06:33:11.913Z,99.99
2016-03-22T06:34:11.884Z,99.99
2016-03-22T06:35:11.856Z,99.99
2016-03-22T06:36:11.858Z,99.99
2016-03-22T06:37:11.830Z,99.99
2016-03-22T06:38:11.817Z,99.99
2016-03-22T06:39:11.804Z,99.99
2016-03-22T06:40:11.837Z,99.99
2016-03-22T06:41:11.794Z,99.99
2016-03-22T06:42:11.765Z,99.99
2016-03-22T06:43:11.736Z,99.99
2016-03-22T06:44:11.724Z,99.99
2016-03-22T06:45:11.711Z,99.99
2016-03-22T06:46:11.698Z,99.99
2016-03-22T06:47:11.685Z,99.58
2016-03-22T06:48:11.672Z,99.58
2016-03-22T06:49:11.690Z,99.68
2016-03-22T06:50:11.646Z,99.3
2016-03-22T06:51:11.616Z,99.11
2016-03-22T06:52:11.604Z,99.06
2016-03-22T06:53:11.591Z,98.49
2016-03-22T06:54:11.579Z,98.02
2016-03-22T06:55:11.566Z,97.36
2016-03-22T06:56:11.552Z,97.36
2016-03-22T06:57:11.555Z,96.59
2016-03-22T06:58:11.542Z,96.69
2016-03-22T06:59:11.499Z,96.41
2016-03-22T07:00:11.485Z,96.12
2016-03-22T07:01:11.473Z,95.12
2016-03-22T07:02:11.459Z,93.89
2016-03-22T07:03:11.446Z,92.9
2016-03-22T07:04:11.434Z,92.85
2016-03-22T07:05:11.420Z,92.85
2016-03-22T07:06:11.408Z,93.04
2016-03-22T07:07:11.395Z,93.32
2016-03-22T07:08:11.387Z,92.66
2016-03-22T07:09:11.373Z,92.23
2016-03-22T07:10:11.361Z,92.09
2016-03-22T07:11:11.348Z,91.99
2016-03-22T07:12:11.350Z,92.51
2016-03-22T07:13:11.323Z,91.99
2016-03-22T07:14:11.294Z,91.61
2016-03-22T07:15:11.312Z,91.52
2016-03-22T07:16:11.267Z,91.38
2016-03-22T07:17:11.255Z,90.71
2016-03-22T07:18:11.242Z,89.19
2016-03-22T07:19:11.229Z,88.38
2016-03-22T07:20:11.216Z,88.67
2016-03-22T07:21:11.218Z,87.34
2016-03-22T07:22:11.205Z,87.62
2016-03-22T07:23:11.193Z,87.24
2016-03-22T07:24:11.179Z,85.57
2016-03-22T07:25:11.166Z,85.38
2016-03-22T07:26:11.169Z,85.33
2016-03-22T07:27:11.140Z,85.76
2016-03-22T07:28:11.128Z,86.71
2016-03-22T07:29:11.115Z,86.33
2016-03-22T07:30:11.118Z,85.86
2016-03-22T07:31:11.089Z,85.86
2016-03-22T07:32:11.107Z,85.86
2016-03-22T07:33:11.079Z,86.24
2016-03-22T07:34:11.065Z,86.05
2016-03-22T07:35:11.053Z,85.66
2016-03-22T07:36:11.040Z,85.57
2016-03-22T07:37:11.043Z,85.57
2016-03-22T07:38:11.014Z,85.47
2016-03-22T07:39:11.001Z,86.24
2016-03-22T07:40:11.004Z,86.95
2016-03-22T07:41:10.991Z,86.95
2016-03-22T07:42:10.978Z,87.24
2016-03-22T07:43:10.964Z,87.52
2016-03-22T07:44:10.968Z,87.9
2016-03-22T07:45:10.939Z,87.14
2016-03-22T07:46:10.927Z,87.05
2016-03-22T07:47:10.914Z,87.71
2016-03-22T07:48:10.916Z,87.05
2016-03-22T07:49:10.888Z,86.47
2016-03-22T07:50:10.874Z,86.86
2016-03-22T07:51:10.862Z,86.95
2016-03-22T07:52:10.849Z,87.24
2016-03-22T07:53:10.851Z,86.95
2016-03-22T07:54:10.823Z,86.86
2016-03-22T07:55:10.810Z,86.86
2016-03-22T07:56:10.812Z,86.43
2016-03-22T07:57:10.799Z,85.57
2016-03-22T07:58:10.787Z,85.66
2016-03-22T07:59:10.774Z,85
2016-03-22T08:00:10.776Z,84.91
2016-03-22T08:01:10.748Z,84.91
2016-03-22T08:02:10.751Z,85.38
2016-03-22T08:03:10.722Z,82.76
2016-03-22T08:04:10.709Z,82
2016-03-22T08:05:10.712Z,81.66
2016-03-22T08:06:10.698Z,81.66
2016-03-22T08:07:10.687Z,81.66
2016-03-22T08:08:10.657Z,82.19
2016-03-22T08:09:10.660Z,82.48
2016-03-22T08:10:10.647Z,82.38
2016-03-22T08:11:10.634Z,82.95
2016-03-22T08:12:10.637Z,82.86
2016-03-22T08:13:10.608Z,82.91
2016-03-22T08:14:10.595Z,83.76
2016-03-22T08:15:10.583Z,84.05
2016-03-22T08:16:10.585Z,84.14
2016-03-22T08:17:10.572Z,84.81
2016-03-22T08:18:10.559Z,84.52
2016-03-22T08:19:10.547Z,84.33
2016-03-22T08:20:10.533Z,84.33
2016-03-22T08:21:10.521Z,84.33
2016-03-22T08:22:10.523Z,84.14
2016-03-22T08:23:10.495Z,84.05
2016-03-22T08:24:10.497Z,84.24
2016-03-22T08:25:10.469Z,84.72
2016-03-22T08:26:10.455Z,84.62
2016-03-22T08:27:10.443Z,84.24
2016-03-22T08:28:10.446Z,84.81
2016-03-22T08:29:10.418Z,84.72
2016-03-22T08:30:10.421Z,84.28
2016-03-22T08:31:10.407Z,83.76
2016-03-22T08:32:10.393Z,83.86
2016-03-22T08:33:10.381Z,84.14
2016-03-22T08:34:10.368Z,83.86
2016-03-22T08:35:10.354Z,84.05
2016-03-22T08:36:10.342Z,84.28
2016-03-22T08:37:10.328Z,83.67
2016-03-22T08:38:10.317Z,83.19
2016-03-22T08:39:10.303Z,82.91
2016-03-22T08:40:10.290Z,82.19
2016-03-22T08:41:10.278Z,80.95
2016-03-22T08:42:10.264Z,79.19
2016-03-22T08:43:10.267Z,77.89
2016-03-22T08:44:10.239Z,77.03
2016-03-22T08:45:10.242Z,76.21
2016-03-22T08:46:10.244Z,75.16
2016-03-22T08:47:10.230Z,73.68
2016-03-22T08:48:10.203Z,71.04
2016-03-22T08:49:10.205Z,71.04
2016-03-22T08:50:10.192Z,71.14
2016-03-22T08:51:10.180Z,70.47
2016-03-22T08:52:10.182Z,71.04
2016-03-22T08:53:10.169Z,70.38
2016-03-22T08:54:10.155Z,71.04
2016-03-22T08:55:10.159Z,71.14
2016-03-22T08:56:10.146Z,71.04
2016-03-22T08:57:10.132Z,71.23
2016-03-22T08:58:10.121Z,71.33
2016-03-22T08:59:10.123Z,70.82
2016-03-22T09:00:10.126Z,71.68
2016-03-22T09:01:10.113Z,72.25
2016-03-22T09:02:10.100Z,72.88
2016-03-22T09:03:10.087Z,72.78
2016-03-22T09:04:10.073Z,72.78
2016-03-22T09:05:10.060Z,72.25
2016-03-22T09:06:10.063Z,71.96
2016-03-22T09:07:10.064Z,71.39
2016-03-22T09:08:10.050Z,71.2
2016-03-22T09:09:10.037Z,71.04
2016-03-22T09:10:10.025Z,71.01
2016-03-22T09:11:10.011Z,72.16
2016-03-22T09:12:10.014Z,72.16
2016-03-22T09:13:10.001Z,72.06
2016-03-22T09:14:09.989Z,72.63
2016-03-22T09:15:09.991Z,73.01
2016-03-22T09:16:09.978Z,72.06
2016-03-22T09:17:09.965Z,72.16
2016-03-22T09:18:09.952Z,72.06
2016-03-22T09:19:09.954Z,70.34
2016-03-22T09:20:09.958Z,70.19
2016-03-22T09:21:09.929Z,69.52
2016-03-22T09:22:09.931Z,70.28
2016-03-22T09:23:09.918Z,70.57
2016-03-22T09:24:09.921Z,70.95
2016-03-22T09:25:09.893Z,70.86
2016-03-22T09:26:09.895Z,70.63
2016-03-22T09:27:09.883Z,70.44
2016-03-22T09:28:09.870Z,70.63
2016-03-22T09:29:09.872Z,70.19
2016-03-22T09:30:09.859Z,69.81
2016-03-22T09:31:09.846Z,69.62
2016-03-22T09:32:09.834Z,69.81
2016-03-22T09:33:09.836Z,69.71
2016-03-22T09:34:09.823Z,69.23
2016-03-22T09:35:09.826Z,68.85
2016-03-22T09:36:09.812Z,69.04
2016-03-22T09:37:09.801Z,67.46
2016-03-22T09:38:09.787Z,66.25
2016-03-22T09:39:09.789Z,65.58
2016-03-22T09:40:09.777Z,65.83
2016-03-22T09:41:09.780Z,65.77
2016-03-22T09:42:09.798Z,65.1
2016-03-22T09:43:09.769Z,64.94
2016-03-22T09:44:09.756Z,65.04
2016-03-22T09:45:09.743Z,64.75
2016-03-22T09:46:09.747Z,64.62
2016-03-22T09:47:09.733Z,63.7
2016-03-22T09:48:09.736Z,62.97
2016-03-22T09:49:09.738Z,62.68
2016-03-22T09:50:09.725Z,62.97
2016-03-22T09:51:09.713Z,63.54
2016-03-22T09:52:09.699Z,63.13
2016-03-22T09:53:09.702Z,64.18
2016-03-22T09:54:09.690Z,64.37
2016-03-22T09:55:09.692Z,63.99
2016-03-22T09:56:09.680Z,64.18
2016-03-22T09:57:09.666Z,64.09
2016-03-22T09:58:09.669Z,64.4
2016-03-22T09:59:09.656Z,65.14
2016-03-22T10:00:09.674Z,66.25
2016-03-22T10:01:09.646Z,67.17
2016-03-22T10:02:09.648Z,66.63
2016-03-22T10:03:09.635Z,66.25
2016-03-22T10:04:09.654Z,67.07
2016-03-22T10:05:09.625Z,67.74
2016-03-22T10:06:09.613Z,68.12
2016-03-22T10:07:09.615Z,66.98
2016-03-22T10:08:09.602Z,65.96
2016-03-22T10:09:09.606Z,65.33
2016-03-22T10:10:09.592Z,65.39
2016-03-22T10:11:09.579Z,65.87
2016-03-22T10:12:09.581Z,66.78
2016-03-22T10:13:09.569Z,67.36
2016-03-22T10:14:09.556Z,67.27
2016-03-22T10:15:09.575Z,67.83
2016-03-22T10:16:09.545Z,66.88
2016-03-22T10:17:09.533Z,65.87
2016-03-22T10:18:09.535Z,64.18
2016-03-22T10:19:09.522Z,63.16
2016-03-22T10:20:09.525Z,63.16
2016-03-22T10:21:09.512Z,62.11
2016-03-22T10:22:09.515Z,61.19
2016-03-22T10:23:09.502Z,60.45
2016-03-22T10:24:09.504Z,60.55
2016-03-22T10:25:09.491Z,60.74
2016-03-22T10:26:09.494Z,60.9
2016-03-22T10:27:09.482Z,59.94
2016-03-22T10:28:09.484Z,60.06
2016-03-22T10:29:09.471Z,59.69
2016-03-22T10:30:09.474Z,58.73
2016-03-22T10:31:09.460Z,59.52
2016-03-22T10:32:09.463Z,60.35
2016-03-22T10:33:09.482Z,59.97
2016-03-22T10:34:09.468Z,59.59
2016-03-22T10:35:09.440Z,59.69
2016-03-22T10:36:09.443Z,60.16
2016-03-22T10:37:09.431Z,61.19
2016-03-22T10:38:09.433Z,62.59
2016-03-22T10:39:09.420Z,63.32
2016-03-22T10:40:09.423Z,63.6
2016-03-22T10:41:09.441Z,63.8
2016-03-22T10:42:09.411Z,63.7
2016-03-22T10:43:09.399Z,63.99
2016-03-22T10:44:09.402Z,64.12
2016-03-22T10:45:09.389Z,64.56
2016-03-22T10:46:09.392Z,64.75
2016-03-22T10:47:09.378Z,64.75
2016-03-22T10:48:09.366Z,65.1
2016-03-22T10:49:09.369Z,64.91
2016-03-22T10:50:09.372Z,65.33
2016-03-22T10:51:09.358Z,65.42
2016-03-22T10:52:09.345Z,65.87
2016-03-22T10:53:09.348Z,65.52
2016-03-22T10:54:09.335Z,64.75
2016-03-22T10:55:09.338Z,63.42
2016-03-22T10:56:09.325Z,63.6
2016-03-22T10:57:09.312Z,64.56
2016-03-22T10:58:09.299Z,64.47
2016-03-22T10:59:09.301Z,64.47
2016-03-22T11:00:09.289Z,64.65
2016-03-22T11:01:09.276Z,63.7
2016-03-22T11:02:09.278Z,63.83
2016-03-22T11:03:09.266Z,64.28
2016-03-22T11:04:09.297Z,63.8
2016-03-22T11:05:09.248Z,63.45
2016-03-22T11:06:09.072Z,63.54
2016-03-22T11:07:09.224Z,62.97
2016-03-22T11:08:09.222Z,63.16
2016-03-22T11:09:09.203Z,63.83
2016-03-22T11:10:09.203Z,64.69
2016-03-22T11:11:09.064Z,64.65
2016-03-22T11:12:09.173Z,64.75
2016-03-22T11:13:09.174Z,64.75
2016-03-22T11:14:09.158Z,65.14
2016-03-22T11:15:09.161Z,65.04
2016-03-22T11:16:09.132Z,65.14
2016-03-22T11:17:09.133Z,65.67
2016-03-22T11:18:09.120Z,66.72
2016-03-22T11:19:09.123Z,67.77
2016-03-22T11:20:09.108Z,67.74
2016-03-22T11:21:09.110Z,68.41
2016-03-22T11:22:09.082Z,68.79
2016-03-22T11:23:09.099Z,68.76
2016-03-22T11:24:09.305Z,69.52
2016-03-22T11:25:09.058Z,69.9
2016-03-22T11:26:09.060Z,69.33
2016-03-22T11:27:09.048Z,69.71
2016-03-22T11:28:09.035Z,70.28
2016-03-22T11:29:09.022Z,69.62
2016-03-22T11:30:09.025Z,70
2016-03-22T11:31:09.011Z,69.71
2016-03-22T11:32:08.999Z,69.81
2016-03-22T11:33:09.001Z,69.9
2016-03-22T11:34:08.989Z,69.71
2016-03-22T11:35:08.975Z,68.66
2016-03-22T11:36:08.962Z,68.7
2016-03-22T11:37:08.950Z,68.7
2016-03-22T11:38:08.937Z,67.83
2016-03-22T11:39:08.939Z,68.12
2016-03-22T11:40:08.926Z,67.68
2016-03-22T11:41:08.930Z,67.21
2016-03-22T11:42:08.916Z,67.21
2016-03-22T11:43:08.903Z,67.21
2016-03-22T11:44:08.891Z,67.21
2016-03-22T11:45:08.893Z,67.4
2016-03-22T11:46:08.880Z,67.4
2016-03-22T11:47:08.883Z,67.01
2016-03-22T11:48:08.869Z,66.72
2016-03-22T11:49:08.857Z,66.76
2016-03-22T11:50:08.843Z,67.21
2016-03-22T11:51:08.847Z,67.3
2016-03-22T11:52:08.834Z,67.4
2016-03-22T11:53:08.821Z,67.77
2016-03-22T11:54:08.807Z,68.82
2016-03-22T11:55:08.795Z,69.17
2016-03-22T11:56:08.798Z,69.84
2016-03-22T11:57:08.785Z,70.19
2016-03-22T11:58:08.771Z,70.47
2016-03-22T11:59:08.774Z,71.04
2016-03-22T12:00:08.762Z,71.33
2016-03-22T12:01:08.576Z,71.62
2016-03-22T12:02:08.767Z,72.19
2016-03-22T12:03:08.723Z,72.25
2016-03-22T12:04:08.725Z,73.01
2016-03-22T12:05:08.712Z,72.82
2016-03-22T12:06:08.700Z,73.58
2016-03-22T12:07:08.686Z,73.58
2016-03-22T12:08:08.673Z,73.68
2016-03-22T12:09:08.660Z,73.68
2016-03-22T12:10:08.648Z,73.68
2016-03-22T12:11:08.635Z,73.55
2016-03-22T12:12:08.622Z,74.02
2016-03-22T12:13:08.625Z,74.31
2016-03-22T12:14:08.596Z,74.21
2016-03-22T12:15:08.599Z,74.54
2016-03-22T12:16:08.586Z,73.49
2016-03-22T12:17:08.588Z,72.44
2016-03-22T12:18:08.575Z,71.52
2016-03-22T12:19:08.546Z,71.43
2016-03-22T12:20:08.550Z,71.43
2016-03-22T12:21:08.537Z,71.14
2016-03-22T12:22:08.524Z,70.32
2016-03-22T12:23:08.511Z,69.08
2016-03-22T12:24:08.498Z,68.12
2016-03-22T12:25:08.501Z,67.01
2016-03-22T12:26:08.472Z,66.38
2016-03-22T12:27:08.474Z,64.94
2016-03-22T12:28:08.461Z,63.73
2016-03-22T12:29:08.464Z,61.6
2016-03-22T12:30:08.451Z,60.29
2016-03-22T12:31:08.439Z,60.89
2016-03-22T12:32:08.426Z,61.88
2016-03-22T12:33:08.428Z,63.19
2016-03-22T12:34:08.415Z,63.64
2016-03-22T12:35:08.417Z,64.4
2016-03-22T12:36:08.406Z,66.09
2016-03-22T12:37:08.392Z,67.81
2016-03-22T12:38:08.410Z,68.86
2016-03-22T12:39:08.367Z,71.21
2016-03-22T12:40:08.384Z,73.5
2016-03-22T12:41:08.356Z,73.47
2016-03-22T12:42:08.344Z,74.8
2016-03-22T12:43:08.330Z,75.72
2016-03-22T12:44:08.333Z,76.39
2016-03-22T12:45:08.319Z,76.96
2016-03-22T12:46:08.308Z,77.82
2016-03-22T12:47:08.294Z,78.64
2016-03-22T12:48:08.281Z,78.44
2016-03-22T12:49:08.284Z,79.3
2016-03-22T12:50:08.271Z,79.21
2016-03-22T12:51:08.258Z,80.44
2016-03-22T12:52:08.246Z,80.12
2016-03-22T12:53:08.233Z,80.54
2016-03-22T12:54:08.219Z,80.44